Time;durP1;ratioP1;P1;durP2;ratioP2;P2;SDS_P1;SDS_P2;PMS_P1;PMS_P2;Temp;Humidity;BMP_temperature;BMP_pressure;BME280_temperature;BME280_humidity;BME280_pressure;Samples;Min_cycle;Max_cycle;Signal;HPM_P1;HPM_P2
2023/04/12 00:00:36;;;;;;;6.07;1.97;;;;;;;-150.27;100.00;61272.81;5071892;29;20497;-74
2023/04/12 00:03:09;;;;;;;5.23;2.03;;;;;;;-150.27;100.00;61272.81;5072215;29;20029;-76
2023/04/12 00:05:45;;;;;;;8.73;2.03;;;;;;;-150.27;100.00;61272.81;5072832;29;20456;-72
2023/04/12 00:08:16;;;;;;;8.07;1.90;;;;;;;-150.27;100.00;61272.81;5071163;29;20044;-73
2023/04/12 00:10:48;;;;;;;6.97;2.20;;;;;;;-150.27;100.00;61272.81;5072630;29;20029;-76
2023/04/12 00:13:19;;;;;;;6.83;2.10;;;;;;;-150.27;100.00;61272.81;5066746;29;20064;-76
2023/04/12 00:15:50;;;;;;;6.00;1.70;;;;;;;-150.27;100.00;61272.81;5079316;29;20029;-76
2023/04/12 00:18:23;;;;;;;9.03;2.17;;;;;;;-150.27;100.00;61272.81;5055733;29;20025;-76
2023/04/12 00:20:55;;;;;;;7.40;2.50;;;;;;;-150.27;100.00;61272.81;5071845;29;20363;-73
2023/04/12 00:23:26;;;;;;;5.30;2.03;;;;;;;-150.27;100.00;61272.81;5074498;29;20477;-69
2023/04/12 00:25:57;;;;;;;7.33;2.10;;;;;;;-150.27;100.00;61272.81;5072870;29;20041;-72
2023/04/12 00:28:29;;;;;;;8.60;2.60;;;;;;;-150.27;100.00;61272.81;5071792;29;20037;-75
2023/04/12 00:31:01;;;;;;;6.37;1.50;;;;;;;-150.27;100.00;61272.81;5072250;29;20029;-76
2023/04/12 00:33:36;;;;;;;7.23;1.97;;;;;;;-150.27;100.00;61272.81;5072206;29;20120;-77
2023/04/12 00:36:08;;;;;;;6.23;1.70;;;;;;;-150.27;100.00;61272.81;5070966;29;20031;-72
2023/04/12 00:38:39;;;;;;;5.23;1.90;;;;;;;-150.27;100.00;61272.81;5070595;29;20033;-76
2023/04/12 00:41:11;;;;;;;7.40;2.57;;;;;;;-150.27;100.00;61272.81;5071583;29;20033;-76
2023/04/12 00:43:42;;;;;;;6.87;2.23;;;;;;;-150.27;100.00;61272.81;5051147;29;20528;-72
2023/04/12 00:46:16;;;;;;;7.33;2.23;;;;;;;-150.27;100.00;61272.81;5071429;29;20048;-73
2023/04/12 00:48:47;;;;;;;5.80;1.93;;;;;;;-150.27;100.00;61272.81;5055214;29;20132;-73
2023/04/12 00:51:21;;;;;;;7.27;1.77;;;;;;;-150.27;100.00;61272.81;5071127;29;20116;-74
2023/04/12 00:53:58;;;;;;;5.90;1.33;;;;;;;-150.27;100.00;61272.81;5072677;29;20912;-75
2023/04/12 00:56:31;;;;;;;8.47;2.13;;;;;;;-150.27;100.00;61272.81;5072186;29;20036;-75
2023/04/12 00:59:02;;;;;;;6.00;2.30;;;;;;;-150.27;100.00;61272.81;5071284;29;20881;-74
2023/04/12 01:01:33;;;;;;;4.10;1.50;;;;;;;-150.27;100.00;61272.81;5072295;29;20032;-73
2023/04/12 01:04:06;;;;;;;7.90;2.57;;;;;;;-150.27;100.00;61272.81;5071587;29;20025;-72
2023/04/12 01:06:47;;;;;;;7.77;2.17;;;;;;;-150.27;100.00;61272.81;5071413;29;20069;-73
2023/04/12 01:09:46;;;;;;;6.33;1.67;;;;;;;-150.27;100.00;61272.81;5073702;29;20047;-70
2023/04/12 01:12:26;;;;;;;6.73;2.30;;;;;;;-150.27;100.00;61272.81;5074831;29;20128;-75
2023/04/12 01:15:08;;;;;;;4.37;1.70;;;;;;;-150.27;100.00;61272.81;5081801;29;20032;-75
2023/04/12 01:17:50;;;;;;;7.80;2.07;;;;;;;-150.27;100.00;61272.81;5082934;29;20037;-73
2023/04/12 01:20:26;;;;;;;7.47;2.33;;;;;;;-150.27;100.00;61272.81;5075217;29;20088;-76
2023/04/12 01:23:53;;;;;;;6.37;2.03;;;;;;;-150.27;100.00;61272.81;5074331;29;20036;-70
2023/04/12 01:26:38;;;;;;;8.53;1.83;;;;;;;-150.27;100.00;61272.81;5044804;29;20049;-76
2023/04/12 01:29:19;;;;;;;8.00;1.80;;;;;;;-150.27;100.00;61272.81;5074535;29;20431;-76
2023/04/12 01:32:00;;;;;;;6.77;2.20;;;;;;;-150.27;100.00;61272.81;5075532;29;20029;-72
2023/04/12 01:34:33;;;;;;;6.80;1.47;;;;;;;-150.27;100.00;61272.81;5060576;29;20035;-75
2023/04/12 01:37:05;;;;;;;8.50;2.80;;;;;;;-150.27;100.00;61272.81;5076152;29;20104;-72
2023/04/12 01:39:37;;;;;;;9.33;2.40;;;;;;;-150.27;100.00;61272.81;5075312;29;20112;-76
2023/04/12 01:42:08;;;;;;;11.13;2.97;;;;;;;-150.27;100.00;61272.81;5074469;29;20124;-75
2023/04/12 01:44:39;;;;;;;4.93;1.60;;;;;;;-150.27;100.00;61272.81;5058255;29;20025;-75
2023/04/12 01:47:11;;;;;;;8.07;2.00;;;;;;;-150.27;100.00;61272.81;5058088;29;20082;-76
2023/04/12 01:50:02;;;;;;;5.97;1.53;;;;;;;-150.27;100.00;61272.81;5058355;29;20048;-73
2023/04/12 01:52:37;;;;;;;7.23;2.17;;;;;;;-150.27;100.00;61272.81;5079346;29;20037;-72
2023/04/12 01:55:11;;;;;;;6.80;2.40;;;;;;;-150.27;100.00;61272.81;5075273;29;20028;-72
2023/04/12 01:57:44;;;;;;;6.97;2.30;;;;;;;-150.27;100.00;61272.81;5075493;29;20081;-68
2023/04/12 02:00:17;;;;;;;6.43;1.97;;;;;;;-150.27;100.00;61272.81;5074061;29;20088;-77
2023/04/12 02:02:49;;;;;;;7.07;2.63;;;;;;;-150.27;100.00;61272.81;5074295;29;20504;-79
2023/04/12 02:05:21;;;;;;;8.80;1.83;;;;;;;-150.27;100.00;61272.81;5056803;29;20041;-75
2023/04/12 02:07:52;;;;;;;7.50;2.70;;;;;;;-150.27;100.00;61272.81;5073417;29;20032;-79
2023/04/12 02:10:31;;;;;;;5.23;1.80;;;;;;;-150.27;100.00;61272.81;5056822;29;20089;-76
2023/04/12 02:13:03;;;;;;;4.37;1.77;;;;;;;-150.27;100.00;61272.81;5073998;29;20033;-79
2023/04/12 02:15:36;;;;;;;8.33;2.27;;;;;;;-150.27;100.00;61272.81;5074544;29;20095;-76
2023/04/12 02:18:07;;;;;;;8.17;1.80;;;;;;;-150.27;100.00;61272.81;5073874;29;20112;-75
2023/04/12 02:20:39;;;;;;;5.57;1.67;;;;;;;-150.27;100.00;61272.81;5070294;29;20116;-75
2023/04/12 02:23:11;;;;;;;3.73;1.70;;;;;;;-150.27;100.00;61272.81;5071569;29;20183;-76
2023/04/12 02:25:45;;;;;;;5.70;1.67;;;;;;;-150.27;100.00;61272.81;5056422;29;20135;-72
2023/04/12 02:28:16;;;;;;;5.68;1.77;;;;;;;-150.27;100.00;61272.81;5068692;29;20122;-74
2023/04/12 02:30:52;;;;;;;5.60;1.77;;;;;;;-150.27;100.00;61272.81;5067967;29;20036;-73
2023/04/12 02:33:27;;;;;;;6.00;1.37;;;;;;;-150.27;100.00;61272.81;5073820;29;20209;-75
2023/04/12 02:36:01;;;;;;;4.13;1.50;;;;;;;-150.27;100.00;61272.81;5076842;29;20061;-70
2023/04/12 02:38:32;;;;;;;4.65;1.30;;;;;;;-150.27;100.00;61272.81;5069177;29;20558;-75
2023/04/12 02:41:04;;;;;;;4.83;1.37;;;;;;;-150.27;100.00;61272.81;5073386;29;20059;-75
2023/04/12 02:43:35;;;;;;;4.63;1.90;;;;;;;-150.27;100.00;61272.81;5056082;29;20037;-74
2023/04/12 02:46:06;;;;;;;5.50;1.43;;;;;;;-150.27;100.00;61272.81;5067811;29;20037;-74
2023/04/12 02:48:37;;;;;;;4.80;1.40;;;;;;;-150.27;100.00;61272.81;5069273;29;20088;-74
2023/04/12 02:51:09;;;;;;;3.53;1.10;;;;;;;-150.27;100.00;61272.81;5072756;29;20106;-75
2023/04/12 02:53:40;;;;;;;4.10;1.53;;;;;;;-150.27;100.00;61272.81;5072880;29;20037;-76
2023/04/12 02:56:11;;;;;;;4.47;1.57;;;;;;;-150.27;100.00;61272.81;5073241;29;20029;-75
2023/04/12 02:58:43;;;;;;;5.10;1.70;;;;;;;-150.27;100.00;61272.81;5072513;29;20039;-74
2023/04/12 03:01:15;;;;;;;4.93;2.00;;;;;;;-150.27;100.00;61272.81;5072842;29;20037;-72
2023/04/12 03:03:47;;;;;;;3.33;1.60;;;;;;;-150.27;100.00;61272.81;5073249;29;20120;-75
2023/04/12 03:06:18;;;;;;;5.20;1.37;;;;;;;-150.27;100.00;61272.81;5071729;29;20136;-74
2023/04/12 03:08:49;;;;;;;5.53;1.70;;;;;;;-150.27;100.00;61272.81;5069515;29;20040;-76
2023/04/12 03:11:20;;;;;;;5.10;1.60;;;;;;;-150.27;100.00;61272.81;5073282;29;20119;-75
2023/04/12 03:13:52;;;;;;;4.60;1.60;;;;;;;-150.27;100.00;61272.81;5073016;29;20037;-76
2023/04/12 03:16:28;;;;;;;4.83;1.10;;;;;;;-150.27;100.00;61272.81;5073021;29;20048;-72
2023/04/12 03:19:00;;;;;;;6.43;1.90;;;;;;;-150.27;100.00;61272.81;5069290;29;20177;-71
2023/04/12 03:21:32;;;;;;;6.40;1.40;;;;;;;-150.27;100.00;61272.81;5083281;29;20119;-74
2023/04/12 03:24:03;;;;;;;2.60;1.13;;;;;;;-150.27;100.00;61272.81;5053884;29;20477;-72
2023/04/12 03:26:35;;;;;;;3.03;1.20;;;;;;;-150.27;100.00;61272.81;5072894;29;20040;-72
2023/04/12 03:29:09;;;;;;;2.93;1.30;;;;;;;-150.27;100.00;61272.81;5071147;29;20033;-74
2023/04/12 03:31:40;;;;;;;3.63;1.17;;;;;;;-150.27;100.00;61272.81;5072669;29;20048;-74
2023/04/12 03:34:11;;;;;;;6.93;1.50;;;;;;;-150.27;100.00;61272.81;5064755;29;20025;-73
2023/04/12 03:36:43;;;;;;;3.43;1.20;;;;;;;-150.27;100.00;61272.81;5070740;29;20469;-69
2023/04/12 03:39:14;;;;;;;5.80;1.50;;;;;;;-150.27;100.00;61272.81;5072681;29;20500;-74
2023/04/12 03:41:45;;;;;;;4.10;1.30;;;;;;;-150.27;100.00;61272.81;5073164;29;20037;-72
2023/04/12 03:44:17;;;;;;;8.20;1.97;;;;;;;-150.27;100.00;61272.81;5073139;29;20029;-72
2023/04/12 03:46:48;;;;;;;2.80;1.03;;;;;;;-150.27;100.00;61272.81;5072767;29;20445;-72
2023/04/12 03:49:20;;;;;;;4.07;1.90;;;;;;;-150.27;100.00;61272.81;5056165;29;20394;-72
2023/04/12 03:51:51;;;;;;;2.53;1.00;;;;;;;-150.27;100.00;61272.81;5071562;29;20052;-71
2023/04/12 03:54:23;;;;;;;6.40;1.47;;;;;;;-150.27;100.00;61272.81;5072389;29;20193;-72
2023/04/12 03:56:55;;;;;;;7.83;1.60;;;;;;;-150.27;100.00;61272.81;5072850;29;20226;-71
2023/04/12 03:59:31;;;;;;;5.70;1.20;;;;;;;-150.27;100.00;61272.81;5072225;29;20041;-71
2023/04/12 04:02:04;;;;;;;5.23;1.43;;;;;;;-150.27;100.00;61272.81;5055676;29;20069;-72
2023/04/12 04:04:36;;;;;;;3.37;1.20;;;;;;;-150.27;100.00;61272.81;5071687;29;20037;-71
2023/04/12 04:07:08;;;;;;;4.77;1.77;;;;;;;-150.27;100.00;61272.81;5055700;29;20029;-71
2023/04/12 04:09:39;;;;;;;5.03;2.37;;;;;;;-150.27;100.00;61272.81;5044667;29;20396;-71
2023/04/12 04:12:10;;;;;;;5.60;1.30;;;;;;;-150.27;100.00;61272.81;5052895;29;20037;-72
2023/04/12 04:14:42;;;;;;;4.73;1.30;;;;;;;-150.27;100.00;61272.81;5053855;29;20034;-72
2023/04/12 04:17:13;;;;;;;6.27;1.67;;;;;;;-150.27;100.00;61272.81;5036453;29;20041;-72
2023/04/12 04:19:44;;;;;;;10.47;1.90;;;;;;;-150.27;100.00;61272.81;5053498;29;20118;-72
2023/04/12 04:22:16;;;;;;;4.40;1.30;;;;;;;-150.27;100.00;61272.81;5052582;29;20040;-73
2023/04/12 04:24:48;;;;;;;5.23;1.90;;;;;;;-150.27;100.00;61272.81;5053342;29;20026;-72
2023/04/12 04:27:21;;;;;;;2.53;1.37;;;;;;;-150.27;100.00;61272.81;5062066;29;20041;-73
2023/04/12 04:29:52;;;;;;;8.13;1.60;;;;;;;-150.27;100.00;61272.81;5072786;29;20407;-73
2023/04/12 04:32:24;;;;;;;3.53;1.20;;;;;;;-150.27;100.00;61272.81;5072634;29;20041;-72
2023/04/12 04:34:58;;;;;;;4.13;1.30;;;;;;;-150.27;100.00;61272.81;5066048;29;20033;-72
2023/04/12 04:37:30;;;;;;;7.70;1.87;;;;;;;-150.27;100.00;61272.81;5052090;29;20033;-73
2023/04/12 04:40:08;;;;;;;5.53;1.70;;;;;;;-150.27;100.00;61272.81;5062767;29;20033;-73
2023/04/12 04:42:41;;;;;;;3.63;1.77;;;;;;;-150.27;100.00;61272.81;5071861;29;20473;-72
2023/04/12 04:45:13;;;;;;;3.80;1.23;;;;;;;-150.27;100.00;61272.81;5075040;29;20055;-71
2023/04/12 04:47:44;;;;;;;2.33;1.17;;;;;;;-150.27;100.00;61272.81;5076711;29;20033;-72
2023/04/12 04:50:16;;;;;;;4.70;1.30;;;;;;;-150.27;100.00;61272.81;5075758;29;20052;-71
2023/04/12 04:52:47;;;;;;;4.57;1.57;;;;;;;-150.27;100.00;61272.81;5060175;29;20049;-71
2023/04/12 04:55:23;;;;;;;6.00;1.40;;;;;;;-150.27;100.00;61272.81;5039838;29;20500;-72
2023/04/12 04:57:56;;;;;;;2.80;1.50;;;;;;;-150.27;100.00;61272.81;5057370;29;20026;-72
2023/04/12 05:00:27;;;;;;;3.37;1.60;;;;;;;-150.27;100.00;61272.81;5056117;29;20022;-73
2023/04/12 05:02:59;;;;;;;3.70;1.53;;;;;;;-150.27;100.00;61272.81;5058838;29;20092;-73
2023/04/12 05:05:31;;;;;;;2.43;1.03;;;;;;;-150.27;100.00;61272.81;5075031;29;20061;-72
2023/04/12 05:08:02;;;;;;;5.40;1.60;;;;;;;-150.27;100.00;61272.81;5074930;29;20090;-72
2023/04/12 05:10:34;;;;;;;2.37;1.37;;;;;;;-150.27;100.00;61272.81;5074384;29;20036;-73
2023/04/12 05:13:05;;;;;;;4.13;1.67;;;;;;;-150.27;100.00;61272.81;5075988;29;20040;-72
2023/04/12 05:15:39;;;;;;;3.50;1.50;;;;;;;-150.27;100.00;61272.81;5075001;29;20056;-72
2023/04/12 05:18:10;;;;;;;5.40;1.65;;;;;;;-150.27;100.00;61272.81;5074731;29;20036;-69
2023/04/12 05:20:41;;;;;;;4.70;1.60;;;;;;;-150.27;100.00;61272.81;5074543;29;20025;-72
2023/04/12 05:23:13;;;;;;;3.57;1.20;;;;;;;-150.27;100.00;61272.81;5074030;29;20033;-72
2023/04/12 05:25:48;;;;;;;4.63;1.70;;;;;;;-150.27;100.00;61272.81;5059130;29;20029;-72
2023/04/12 05:28:20;;;;;;;5.00;1.60;;;;;;;-150.27;100.00;61272.81;5050652;29;20503;-69
2023/04/12 05:30:51;;;;;;;7.33;1.90;;;;;;;-150.27;100.00;61272.81;5062123;29;20033;-73
2023/04/12 05:33:22;;;;;;;6.03;1.80;;;;;;;-150.27;100.00;61272.81;5074129;29;20666;-73
2023/04/12 05:35:54;;;;;;;6.07;1.70;;;;;;;-150.27;100.00;61272.81;5058979;29;20029;-74
2023/04/12 05:38:25;;;;;;;5.47;1.77;;;;;;;-150.27;100.00;61272.81;5069841;29;20029;-70
2023/04/12 05:40:56;;;;;;;4.83;1.70;;;;;;;-150.27;100.00;61272.81;5068666;29;20036;-71
2023/04/12 05:43:28;;;;;;;5.27;1.60;;;;;;;-150.27;100.00;61272.81;5055868;29;20032;-71
2023/04/12 05:45:59;;;;;;;6.40;1.83;;;;;;;-150.27;100.00;61272.81;5062032;29;20025;-71
2023/04/12 05:48:30;;;;;;;5.40;1.40;;;;;;;-150.27;100.00;61272.81;5074901;29;20033;-70
2023/04/12 05:51:03;;;;;;;5.13;2.00;;;;;;;-150.27;100.00;61272.81;5073542;29;20029;-72
2023/04/12 05:53:35;;;;;;;9.00;1.83;;;;;;;-150.27;100.00;61272.81;5072138;29;20025;-74
2023/04/12 05:56:06;;;;;;;5.10;2.00;;;;;;;-150.27;100.00;61272.81;5067285;29;20084;-75
2023/04/12 05:58:38;;;;;;;4.57;1.63;;;;;;;-150.27;100.00;61272.81;5065423;29;20400;-73
2023/04/12 06:01:09;;;;;;;5.00;1.80;;;;;;;-150.27;100.00;61272.81;5070371;29;20040;-70
2023/04/12 06:03:42;;;;;;;5.03;2.53;;;;;;;-150.27;100.00;61272.81;5074906;29;20056;-74
2023/04/12 06:06:14;;;;;;;5.07;1.77;;;;;;;-150.27;100.00;61272.81;5072851;29;20177;-74
2023/04/12 06:08:46;;;;;;;3.50;1.80;;;;;;;-150.27;100.00;61272.81;5068236;29;20040;-74
2023/04/12 06:11:17;;;;;;;7.80;2.20;;;;;;;-150.27;100.00;61272.81;5065383;29;20033;-76
2023/04/12 06:13:49;;;;;;;3.87;2.00;;;;;;;-150.27;100.00;61272.81;5071564;29;20505;-75
2023/04/12 06:16:20;;;;;;;5.00;2.60;;;;;;;-150.27;100.00;61272.81;5065835;29;20764;-74
2023/04/12 06:18:52;;;;;;;5.33;2.50;;;;;;;-150.27;100.00;61272.81;5059929;29;20037;-74
2023/04/12 06:21:23;;;;;;;5.10;2.60;;;;;;;-150.27;100.00;61272.81;5064808;29;20561;-71
2023/04/12 06:23:55;;;;;;;6.93;2.40;;;;;;;-150.27;100.00;61272.81;5047178;29;20080;-71
2023/04/12 06:26:26;;;;;;;6.30;2.80;;;;;;;-150.27;100.00;61272.81;5062270;29;20702;-75
2023/04/12 06:28:57;;;;;;;7.73;2.77;;;;;;;-150.27;100.00;61272.81;5069778;29;20058;-75
2023/04/12 06:31:28;;;;;;;6.80;2.60;;;;;;;-150.27;100.00;61272.81;5069463;29;20040;-69
2023/04/12 06:34:00;;;;;;;5.93;2.40;;;;;;;-150.27;100.00;61272.81;5054878;29;20045;-74
2023/04/12 06:36:31;;;;;;;4.93;2.40;;;;;;;-150.27;100.00;61272.81;5054195;29;20069;-73
2023/04/12 06:39:03;;;;;;;6.33;2.27;;;;;;;-150.27;100.00;61272.81;5037994;29;20089;-75
2023/04/12 06:41:34;;;;;;;4.23;2.17;;;;;;;-150.27;100.00;61272.81;5054236;29;20037;-69
2023/04/12 06:44:05;;;;;;;3.47;1.93;;;;;;;-150.27;100.00;61272.81;5055753;29;20090;-71
2023/04/12 06:46:36;;;;;;;4.37;2.10;;;;;;;-150.27;100.00;61272.81;5054740;29;20044;-74
2023/04/12 06:49:08;;;;;;;6.80;2.13;;;;;;;-150.27;100.00;61272.81;5052901;29;20037;-73
2023/04/12 06:51:39;;;;;;;4.67;2.07;;;;;;;-150.27;100.00;61272.81;5053222;29;20456;-74
2023/04/12 06:54:11;;;;;;;6.40;2.83;;;;;;;-150.27;100.00;61272.81;5052737;29;20428;-74
2023/04/12 06:56:42;;;;;;;4.30;2.63;;;;;;;-150.27;100.00;61272.81;5060151;29;20086;-74
2023/04/12 06:59:13;;;;;;;4.93;2.87;;;;;;;-150.27;100.00;61272.81;5072043;29;20028;-74
2023/04/12 07:01:45;;;;;;;3.73;2.20;;;;;;;-150.27;100.00;61272.81;5070671;29;20033;-80
2023/04/12 07:04:16;;;;;;;3.23;2.20;;;;;;;-150.27;100.00;61272.81;5063189;29;20040;-71
2023/04/12 07:06:47;;;;;;;4.53;2.60;;;;;;;-150.27;100.00;61272.81;5055965;29;20049;-77
2023/04/12 07:09:19;;;;;;;4.87;2.40;;;;;;;-150.27;100.00;61272.81;5069417;29;20196;-81
2023/04/12 07:11:50;;;;;;;6.03;2.80;;;;;;;-150.27;100.00;61272.81;5055285;29;20424;-82
2023/04/12 07:14:21;;;;;;;3.33;1.80;;;;;;;-150.27;100.00;61272.81;5060281;29;20029;-79
2023/04/12 07:16:53;;;;;;;5.70;2.40;;;;;;;-150.27;100.00;61272.81;5073007;29;20040;-71
2023/04/12 07:19:24;;;;;;;6.13;2.37;;;;;;;-150.27;100.00;61272.81;5072658;29;20037;-77
2023/04/12 07:21:55;;;;;;;9.27;3.00;;;;;;;-150.27;100.00;61272.81;5053506;29;20034;-72
2023/04/12 07:24:27;;;;;;;4.43;2.27;;;;;;;-150.27;100.00;61272.81;5054552;29;20040;-77
2023/04/12 07:26:58;;;;;;;6.13;2.97;;;;;;;-150.27;100.00;61272.81;5057103;29;20036;-78
2023/04/12 07:29:30;;;;;;;6.77;3.30;;;;;;;-150.27;100.00;61272.81;5064597;29;20487;-75
2023/04/12 07:32:02;;;;;;;5.77;2.60;;;;;;;-150.27;100.00;61272.81;5045859;29;20722;-77
2023/04/12 07:34:33;;;;;;;5.23;3.00;;;;;;;-150.27;100.00;61272.81;5054413;29;20553;-75
2023/04/12 07:37:05;;;;;;;8.33;3.03;;;;;;;-150.27;100.00;61272.81;5050697;29;20124;-71
2023/04/12 07:39:39;;;;;;;5.37;3.17;;;;;;;-150.27;100.00;61272.81;5053787;29;20457;-74
2023/04/12 07:42:10;;;;;;;7.70;3.33;;;;;;;-150.27;100.00;61272.81;5053436;29;20038;-75
2023/04/12 07:44:41;;;;;;;7.20;2.60;;;;;;;-150.27;100.00;61272.81;5054723;29;20029;-75
2023/04/12 07:47:13;;;;;;;16.50;3.60;;;;;;;-150.27;100.00;61272.81;5037129;29;20089;-75
2023/04/12 07:49:44;;;;;;;8.63;3.03;;;;;;;-150.27;100.00;61272.81;5051424;29;20032;-75
2023/04/12 07:52:15;;;;;;;7.17;2.80;;;;;;;-150.27;100.00;61272.81;5057474;29;20111;-74
2023/04/12 07:54:46;;;;;;;7.73;3.10;;;;;;;-150.27;100.00;61272.81;5053533;29;20040;-74
2023/04/12 07:57:18;;;;;;;7.70;2.87;;;;;;;-150.27;100.00;61272.81;5036272;29;20073;-75
2023/04/12 07:59:49;;;;;;;9.30;3.57;;;;;;;-150.27;100.00;61272.81;5036373;29;20025;-72
2023/04/12 08:02:23;;;;;;;9.50;3.47;;;;;;;-150.27;100.00;61272.81;5054359;29;20033;-71
2023/04/12 08:04:55;;;;;;;13.07;4.07;;;;;;;-150.27;100.00;61272.81;5072858;29;20060;-74
2023/04/12 08:07:26;;;;;;;13.00;5.00;;;;;;;-150.27;100.00;61272.81;5071495;29;20036;-73
2023/04/12 08:09:57;;;;;;;8.07;3.57;;;;;;;-150.27;100.00;61272.81;5072686;29;20032;-76
2023/04/12 08:12:28;;;;;;;9.20;3.00;;;;;;;-150.27;100.00;61272.81;5071109;29;20041;-74
2023/04/12 08:15:00;;;;;;;7.50;3.00;;;;;;;-150.27;100.00;61272.81;5072352;29;20485;-72
2023/04/12 08:17:31;;;;;;;11.20;3.90;;;;;;;-150.27;100.00;61272.81;5072650;29;20026;-75
2023/04/12 08:20:03;;;;;;;8.70;3.30;;;;;;;-150.27;100.00;61272.81;5074807;29;20071;-75
2023/04/12 08:22:35;;;;;;;7.37;3.33;;;;;;;-150.27;100.00;61272.81;5076533;29;20029;-73
2023/04/12 08:25:07;;;;;;;8.87;3.27;;;;;;;-150.27;100.00;61272.81;5064954;29;20036;-76
2023/04/12 08:27:41;;;;;;;6.77;3.47;;;;;;;-150.27;100.00;61272.81;5065488;29;20033;-77
2023/04/12 08:30:12;;;;;;;9.07;3.60;;;;;;;-150.27;100.00;61272.81;5075166;29;20485;-76
2023/04/12 08:32:44;;;;;;;9.43;4.17;;;;;;;-150.27;100.00;61272.81;5061734;29;20030;-72
2023/04/12 08:35:15;;;;;;;8.13;3.80;;;;;;;-150.27;100.00;61272.81;5062844;29;20111;-76
2023/04/12 08:37:46;;;;;;;7.20;4.77;;;;;;;-150.27;100.00;61272.81;5072168;29;20571;-73
2023/04/12 08:40:20;;;;;;;10.57;4.67;;;;;;;-150.27;100.00;61272.81;5073388;29;20404;-78
2023/04/12 08:42:51;;;;;;;8.73;4.30;;;;;;;-150.27;100.00;61272.81;5057779;29;20389;-81
2023/04/12 08:45:27;;;;;;;9.53;4.80;;;;;;;-150.27;100.00;61272.81;5073417;29;20041;-78
2023/04/12 08:48:02;;;;;;;10.03;4.77;;;;;;;-150.27;100.00;61272.81;5072414;29;20069;-76
2023/04/12 08:50:33;;;;;;;9.73;5.40;;;;;;;-150.27;100.00;61272.81;5072020;29;20131;-75
2023/04/12 08:53:05;;;;;;;11.83;5.53;;;;;;;-150.27;100.00;61272.81;5077831;29;20763;-71
2023/04/12 08:55:36;;;;;;;11.70;6.40;;;;;;;-150.27;100.00;61272.81;5057024;29;20441;-75
2023/04/12 08:58:08;;;;;;;14.83;5.67;;;;;;;-150.27;100.00;61272.81;5064143;29;20037;-73
2023/04/12 09:00:40;;;;;;;9.60;5.63;;;;;;;-150.27;100.00;61272.81;5070709;29;20043;-75
2023/04/12 09:03:11;;;;;;;10.43;5.70;;;;;;;-150.27;100.00;61272.81;5073878;29;20033;-75
2023/04/12 09:05:43;;;;;;;13.20;5.90;;;;;;;-150.27;100.00;61272.81;5057937;29;20543;-75
2023/04/12 09:08:15;;;;;;;8.60;4.70;;;;;;;-150.27;100.00;61272.81;5072582;29;20037;-75
2023/04/12 09:10:47;;;;;;;19.43;5.80;;;;;;;-150.27;100.00;61272.81;5070959;29;20048;-72
2023/04/12 09:13:33;;;;;;;13.10;5.27;;;;;;;-150.27;100.00;61272.81;5073427;29;20044;-73
2023/04/12 09:16:05;;;;;;;14.47;5.13;;;;;;;-150.27;100.00;61272.81;5087900;29;20021;-71
2023/04/12 09:18:50;;;;;;;13.57;6.00;;;;;;;-150.27;100.00;61272.81;5074811;29;20479;-75
2023/04/12 09:21:21;;;;;;;14.18;4.93;;;;;;;-150.27;100.00;61272.81;5056860;29;20037;-76
2023/04/12 09:24:09;;;;;;;16.97;5.50;;;;;;;-150.27;100.00;61272.81;5074442;29;20036;-76
2023/04/12 09:26:41;;;;;;;15.87;5.83;;;;;;;-150.27;100.00;61272.81;5070551;29;20108;-77
2023/04/12 09:29:23;;;;;;;19.53;5.97;;;;;;;-150.27;100.00;61272.81;5059246;29;20037;-76
2023/04/12 09:31:56;;;;;;;17.97;4.90;;;;;;;-150.27;100.00;61272.81;5074374;29;20035;-76
2023/04/12 09:34:28;;;;;;;12.90;4.70;;;;;;;-150.27;100.00;61272.81;5051860;29;21814;-78
2023/04/12 09:37:13;;;;;;;19.40;5.73;;;;;;;-150.27;100.00;61272.81;5057064;29;20036;-76
2023/04/12 09:39:44;;;;;;;13.20;5.00;;;;;;;-150.27;100.00;61272.81;5075289;29;20045;-77
2023/04/12 09:42:16;;;;;;;27.73;6.17;;;;;;;-150.27;100.00;61272.81;5056223;29;20029;-73
2023/04/12 09:44:47;;;;;;;19.73;5.77;;;;;;;-150.27;100.00;61272.81;5070971;29;20036;-72
2023/04/12 09:47:19;;;;;;;17.37;5.37;;;;;;;-150.27;100.00;61272.81;5038670;29;20046;-74
2023/04/12 09:49:51;;;;;;;17.67;5.23;;;;;;;-150.27;100.00;61272.81;5054794;29;20053;-74
2023/04/12 09:52:22;;;;;;;17.27;5.10;;;;;;;-150.27;100.00;61272.81;5055400;29;20025;-74
2023/04/12 09:54:56;;;;;;;20.23;5.73;;;;;;;-150.27;100.00;61272.81;5055721;29;20867;-74
2023/04/12 09:57:29;;;;;;;17.40;4.30;;;;;;;-150.27;100.00;61272.81;5055640;29;20437;-74
2023/04/12 10:00:04;;;;;;;18.50;5.57;;;;;;;-150.27;100.00;61272.81;5038463;29;20033;-73
2023/04/12 10:02:35;;;;;;;23.20;6.27;;;;;;;-150.27;100.00;61272.81;5054748;29;20034;-71
2023/04/12 10:05:09;;;;;;;23.43;5.53;;;;;;;-150.27;100.00;61272.81;5053942;29;20057;-74
2023/04/12 10:07:41;;;;;;;14.40;4.80;;;;;;;-150.27;100.00;61272.81;5055403;29;20034;-74
2023/04/12 10:10:15;;;;;;;22.60;4.63;;;;;;;-150.27;100.00;61272.81;5055842;29;20037;-74
2023/04/12 10:12:48;;;;;;;15.80;5.05;;;;;;;-150.27;100.00;61272.81;5055598;29;20044;-79
2023/04/12 10:15:20;;;;;;;15.13;4.43;;;;;;;-150.27;100.00;61272.81;5054642;29;20044;-73
2023/04/12 10:17:52;;;;;;;16.63;4.33;;;;;;;-150.27;100.00;61272.81;5056196;29;20031;-74
2023/04/12 10:20:24;;;;;;;21.87;5.13;;;;;;;-150.27;100.00;61272.81;5054322;29;20032;-77
2023/04/12 10:22:58;;;;;;;19.33;5.20;;;;;;;-150.27;100.00;61272.81;5054788;29;20441;-74
2023/04/12 10:25:30;;;;;;;16.73;4.68;;;;;;;-150.27;100.00;61272.81;5055274;29;20041;-74
2023/04/12 10:28:20;;;;;;;16.37;4.50;;;;;;;-150.27;100.00;61272.81;5054997;29;20108;-71
2023/04/12 10:30:56;;;;;;;23.40;5.73;;;;;;;-150.27;100.00;61272.81;5054266;29;20580;-74
2023/04/12 10:33:29;;;;;;;15.20;4.17;;;;;;;-150.27;100.00;61272.81;5055028;29;20406;-76
2023/04/12 10:36:05;;;;;;;19.10;5.00;;;;;;;-150.27;100.00;61272.81;5036693;29;20033;-69
2023/04/12 10:38:46;;;;;;;13.87;4.93;;;;;;;-150.27;100.00;61272.81;5055071;29;20033;-78
2023/04/12 10:41:19;;;;;;;18.33;3.73;;;;;;;-150.27;100.00;61272.81;5037143;29;20069;-75
2023/04/12 10:43:51;;;;;;;19.00;4.30;;;;;;;-150.27;100.00;61272.81;5055144;29;20057;-69
2023/04/12 10:46:37;;;;;;;16.73;3.87;;;;;;;-150.27;100.00;61272.81;5054486;29;20025;-75
2023/04/12 10:49:16;;;;;;;14.17;4.50;;;;;;;-150.27;100.00;61272.81;5068553;29;20067;-74
2023/04/12 10:51:59;;;;;;;14.47;3.87;;;;;;;-150.27;100.00;61272.81;5073119;29;20396;-79
2023/04/12 10:54:35;;;;;;;17.57;5.03;;;;;;;-150.27;100.00;61272.81;5073250;29;20057;-75
2023/04/12 10:57:39;;;;;;;18.80;4.97;;;;;;;-150.27;100.00;61272.81;5060626;29;20044;-76
2023/04/12 11:00:11;;;;;;;13.10;4.77;;;;;;;-150.27;100.00;61272.81;5069933;29;20033;-78
2023/04/12 11:03:04;;;;;;;17.30;5.23;;;;;;;-150.27;100.00;61272.81;5068531;29;20017;-77
2023/04/12 11:06:05;;;;;;;19.53;5.00;;;;;;;-150.27;100.00;61272.81;5052916;29;20505;-73
2023/04/12 11:08:38;;;;;;;19.50;6.27;;;;;;;-150.27;100.00;61272.81;5049806;29;20034;-72
2023/04/12 11:11:21;;;;;;;22.77;6.23;;;;;;;-150.27;100.00;61272.81;5053799;29;20042;-76
2023/04/12 11:13:55;;;;;;;21.17;5.57;;;;;;;-150.27;100.00;61272.81;5054520;29;20104;-75
2023/04/12 11:16:29;;;;;;;19.33;6.40;;;;;;;-150.27;100.00;61272.81;5066524;29;20036;-76
2023/04/12 11:19:01;;;;;;;21.05;5.95;;;;;;;-150.27;100.00;61272.81;5066220;29;20061;-73
2023/04/12 11:21:32;;;;;;;24.93;7.17;;;;;;;-150.27;100.00;61272.81;5071164;29;20076;-73
2023/04/12 11:24:04;;;;;;;19.97;5.80;;;;;;;-150.27;100.00;61272.81;5073222;29;20096;-75
2023/04/12 11:26:36;;;;;;;18.03;6.47;;;;;;;-150.27;100.00;61272.81;5072067;29;20108;-71
2023/04/12 11:29:11;;;;;;;18.40;6.03;;;;;;;-150.27;100.00;61272.81;5072731;29;20512;-76
2023/04/12 11:31:42;;;;;;;20.80;6.47;;;;;;;-150.27;100.00;61272.81;5073647;29;20032;-76
2023/04/12 11:34:16;;;;;;;18.53;5.97;;;;;;;-150.27;100.00;61272.81;5072880;29;20037;-75